Terminal Aerodrome Forecast
Issued by NWS Mt. Holly, NJ

Home | Current Version | Previous Version | Text Only | Print | Product List | Glossary On
Versions: 1 2 3 4 5 6 7 8 9 10 11 12 13 14 15 16 17
000
FTUS41 KPHI 300759 AAA
TAFILG
TAF AMD
KILG 300759Z 3008/3106 20010KT P6SM VCSH OVC050
      TEMPO 3008/3011 6SM -SNRA SCT025 OVC040
     FM301100 20012KT P6SM VCSH OVC050
     FM301400 24012G22KT P6SM BKN050
     FM301700 27015G25KT P6SM SCT050 BKN150
     FM302000 30018G28KT P6SM SCT050
     FM310000 28010KT P6SM FEW050=

USA.gov is the U.S. government's official web portal to all federal, state and local government web resources and services.